opportuno.de alexa rank chart, opportuno.de alexa rank daily changes

opportuno.de alexa rank chart, opportuno.de alexa rank daily changes

opportuno.de
Actual rank:
352 375

RANK HISTORY

Date Rank Diff
2017/07/24 352 375 +4 188
2017/07/23 348 187 -8 994
2017/07/22 357 181 -119
2017/07/21 357 300 +11 768
2017/07/20 345 532 -8 433
2017/07/19 353 965 -10 489
2017/07/18 364 454 -1 650
2017/07/17 366 104 -16 985
2017/07/16 383 089 -2 557
2017/07/15 385 646 -27 045
2017/07/14 412 691 -19 289
2017/07/13 431 980 +15 805
2017/07/12 416 175 +10 208
2017/07/11 405 967 +3 771
2017/07/10 402 196 -25 592
2017/07/09 427 788 +4 434
2017/07/08 423 354 -23 509
2017/07/07 446 863 -22 381
2017/07/06 469 244 -1 100
2017/07/05 470 344 -3 987
2017/07/04 474 331 +5 245
2017/07/03 469 086 +4 563
2017/07/02 464 523 -4 647
2017/07/01 469 170 -6 391
2017/06/30 475 561 +1 953
2017/06/29 473 608 +10 894
2017/06/28 462 714 -40 277
2017/06/27 502 991 -101
2017/06/26 503 092 -2 114
2017/06/25 505 206 -42 367
2017/06/24 547 573 -11 516
2017/06/23 559 089 -1 228
2017/06/22 560 317 -19 308
2017/06/21 579 625 -16 988
2017/06/20 596 613 -2 600
2017/06/19 599 213 +7 929
2017/06/18 591 284 -26 505
2017/06/17 617 789 +10 015
2017/06/16 607 774 -33 531
2017/06/15 641 305 -10 746
2017/06/14 652 051 -21 661
2017/06/13 673 712 -26 570
2017/06/12 700 282 -73 750
2017/06/11 774 032 +37 765
2017/06/10 736 267 -476
2017/06/09 736 743 -37 237
2017/06/08 773 980 -15 108
2017/06/07 789 088 +40 454
2017/06/06 748 634 -32 924
2017/06/05 781 558 -2 055
2017/06/04 783 613 -21 078
2017/06/03 804 691 -19 473
2017/06/02 824 164 +12 914
2017/06/01 811 250 +21 608
2017/05/31 789 642 +10 852
2017/05/30 778 790 -2 636
2017/05/29 781 426 +6 200
2017/05/28 775 226 +22 448
2017/05/27 752 778 -6 977
2017/05/26 759 755 +23 001
2017/05/25 736 754

WIDGET FOR YOUR SITE

DOMAINS WITH THE NEAREST RANK

Domain Rank
cumbiamasflow.net 352 370
readingmate.com.cn 352 371
colorkinetics.com 352 372
gss.gs 352 373
warnermusic.de 352 374
opportuno.de 352 375
wecomply.com 352 376
majorcommand.com 352 377
gloriousteen.top 352 378
biska.com 352 379
carersuk.org 352 380

DOMAINS WITH THE NEAREST RANK BY TLD .de

Domain Rank
bsw.de 352 302
ritterladen.de 352 327
rot-weiss-essen.de 352 340
renovate-themes.de 352 368
warnermusic.de 352 374
opportuno.de 352 375
possling.de 352 439
avd.de 352 452
wetest.de 352 495
avv.de 352 503
pedelec-elektro-fahrrad.de 352 552